createdAt,value
2023-05-08T00:00:33.330Z,7.7
2023-05-08T00:01:33.279Z,9.5
2023-05-08T00:02:33.333Z,9.2
2023-05-08T00:03:33.526Z,10.1
2023-05-08T00:04:33.287Z,7.0
2023-05-08T00:05:33.281Z,14.1
2023-05-08T00:06:33.405Z,7.6
2023-05-08T00:07:33.295Z,9.6
2023-05-08T00:08:33.281Z,7.0
2023-05-08T00:09:33.293Z,8.9
2023-05-08T00:10:33.282Z,5.7
2023-05-08T00:11:33.295Z,6.1
2023-05-08T00:12:33.250Z,5.5
2023-05-08T00:13:33.258Z,5.6
2023-05-08T00:14:33.331Z,7.5
2023-05-08T00:15:33.294Z,4.6
2023-05-08T00:16:33.355Z,7.9
2023-05-08T00:17:33.454Z,9.9
2023-05-08T00:18:33.274Z,7.8
2023-05-08T00:19:33.303Z,7.3
2023-05-08T00:20:33.288Z,6.3
2023-05-08T00:21:33.418Z,4.8
2023-05-08T00:22:33.245Z,5.3
2023-05-08T00:23:33.255Z,5.7
2023-05-08T00:24:33.251Z,6.2
2023-05-08T00:25:33.285Z,11.1
2023-05-08T00:26:33.273Z,13.9
2023-05-08T00:27:33.658Z,7.6
2023-05-08T00:28:33.550Z,10.9
2023-05-08T00:29:33.231Z,11.1
2023-05-08T00:30:33.283Z,10.3
2023-05-08T00:31:33.353Z,11.3
2023-05-08T00:32:33.310Z,11.8
2023-05-08T00:33:33.427Z,12.0
2023-05-08T00:34:33.310Z,10.1
2023-05-08T00:35:33.219Z,6.5
2023-05-08T00:36:33.213Z,8.7
2023-05-08T00:37:33.234Z,5.8
2023-05-08T00:38:33.241Z,7.0
2023-05-08T00:39:33.261Z,9.7
2023-05-08T00:40:33.236Z,11.5
2023-05-08T00:41:33.227Z,10.3
2023-05-08T00:42:33.225Z,7.7
2023-05-08T00:43:33.238Z,5.6
2023-05-08T00:44:35.168Z,7.2
2023-05-08T00:45:33.228Z,7.4
2023-05-08T00:46:33.267Z,6.1
2023-05-08T00:47:33.302Z,6.5
2023-05-08T00:48:33.206Z,8.8
2023-05-08T00:49:33.292Z,9.6
2023-05-08T00:50:33.209Z,7.5
2023-05-08T00:51:33.253Z,7.3
2023-05-08T00:52:33.390Z,8.3
2023-05-08T00:53:33.228Z,10.4
2023-05-08T00:54:33.237Z,8.6
2023-05-08T00:55:33.193Z,8.8
2023-05-08T00:56:33.209Z,10.4
2023-05-08T00:57:33.347Z,10.9
2023-05-08T00:58:33.262Z,10.4
2023-05-08T00:59:33.218Z,7.5
2023-05-08T01:00:33.350Z,9.7
2023-05-08T01:01:33.202Z,11.4
2023-05-08T01:02:33.338Z,8.2
2023-05-08T01:03:33.350Z,8.5
2023-05-08T01:04:33.237Z,8.2
2023-05-08T01:05:33.143Z,7.3
2023-05-08T01:06:33.175Z,7.4
2023-05-08T01:07:33.159Z,7.6
2023-05-08T01:08:33.419Z,6.9
2023-05-08T01:09:33.197Z,7.6
2023-05-08T01:10:33.151Z,7.5
2023-05-08T01:11:33.357Z,7.6
2023-05-08T01:12:33.180Z,9.9
2023-05-08T01:13:33.325Z,6.5
2023-05-08T01:15:33.158Z,9.1
2023-05-08T01:16:33.499Z,7.6
2023-05-08T01:17:33.294Z,8.3
2023-05-08T01:18:33.213Z,8.2
2023-05-08T01:19:33.192Z,9.4
2023-05-08T01:20:33.166Z,7.2
2023-05-08T01:21:33.198Z,9.3
2023-05-08T01:22:33.327Z,8.3
2023-05-08T01:23:33.177Z,7.0
2023-05-08T01:24:33.295Z,6.9
2023-05-08T01:25:33.149Z,9.5
2023-05-08T01:26:33.138Z,8.6
2023-05-08T01:27:33.134Z,7.1
2023-05-08T01:28:33.150Z,8.1
2023-05-08T01:29:33.159Z,7.0
2023-05-08T01:30:33.156Z,6.3
2023-05-08T01:31:33.147Z,6.3
2023-05-08T01:32:33.180Z,5.8
2023-05-08T01:33:33.374Z,5.6
2023-05-08T01:34:33.158Z,5.6
2023-05-08T01:35:33.186Z,6.2
2023-05-08T01:36:33.127Z,6.2
2023-05-08T01:37:33.137Z,5.7
2023-05-08T01:38:33.146Z,5.7
2023-05-08T01:39:33.097Z,5.6
2023-05-08T01:40:33.144Z,6.1
2023-05-08T01:41:33.125Z,6.1
2023-05-08T01:42:33.126Z,5.4
2023-05-08T01:43:33.113Z,5.1
2023-05-08T01:44:33.260Z,6.3
2023-05-08T01:45:33.098Z,4.8
2023-05-08T01:46:33.120Z,6.6
2023-05-08T01:47:33.151Z,5.2
2023-05-08T01:48:33.111Z,5.0
2023-05-08T01:49:33.135Z,5.0
2023-05-08T01:50:33.073Z,6.9
2023-05-08T01:51:33.109Z,5.8
2023-05-08T01:52:33.083Z,3.9
2023-05-08T01:53:33.133Z,4.7
2023-05-08T01:54:33.106Z,4.4
2023-05-08T01:55:33.247Z,6.1
2023-05-08T01:56:33.096Z,5.4
2023-05-08T01:57:33.116Z,8.0
2023-05-08T01:58:33.138Z,13.2
2023-05-08T01:59:33.145Z,10.0
2023-05-08T02:00:33.133Z,6.9
2023-05-08T02:01:33.106Z,9.0
2023-05-08T02:02:33.170Z,8.1
2023-05-08T02:03:33.203Z,6.1
2023-05-08T02:04:33.157Z,6.4
2023-05-08T02:05:33.070Z,7.8
2023-05-08T02:06:33.267Z,7.0
2023-05-08T02:07:33.146Z,6.4
2023-05-08T02:08:33.058Z,5.6
2023-05-08T02:09:33.111Z,4.2
2023-05-08T02:10:33.123Z,5.8
2023-05-08T02:11:33.066Z,6.1
2023-05-08T02:12:33.097Z,5.8
2023-05-08T02:13:33.067Z,5.1
2023-05-08T02:14:33.093Z,5.0
2023-05-08T02:15:33.107Z,6.6
2023-05-08T02:16:33.125Z,6.4
2023-05-08T02:17:33.262Z,4.8
2023-05-08T02:18:33.078Z,4.6
2023-05-08T02:19:33.088Z,4.7
2023-05-08T02:20:33.054Z,5.0
2023-05-08T02:21:33.034Z,6.3
2023-05-08T02:22:33.118Z,5.3
2023-05-08T02:23:33.045Z,5.3
2023-05-08T02:24:33.066Z,4.5
2023-05-08T02:25:33.047Z,5.0
2023-05-08T02:26:33.063Z,5.7
2023-05-08T02:27:33.082Z,4.7
2023-05-08T02:28:33.254Z,5.1
2023-05-08T02:29:33.039Z,5.1
2023-05-08T02:30:33.054Z,5.4
2023-05-08T02:31:33.080Z,6.1
2023-05-08T02:32:33.102Z,5.4
2023-05-08T02:33:33.015Z,5.2
2023-05-08T02:34:33.021Z,7.2
2023-05-08T02:35:33.149Z,7.3
2023-05-08T02:36:33.020Z,7.1
2023-05-08T02:37:33.071Z,6.6
2023-05-08T02:38:33.000Z,8.9
2023-05-08T02:39:33.167Z,7.8
2023-05-08T02:40:32.999Z,8.1
2023-05-08T02:41:32.988Z,8.3
2023-05-08T02:42:33.007Z,5.8
2023-05-08T02:43:33.061Z,7.0
2023-05-08T02:44:33.010Z,7.5
2023-05-08T02:45:32.999Z,5.8
2023-05-08T02:46:33.132Z,5.2
2023-05-08T02:47:33.020Z,4.5
2023-05-08T02:48:33.090Z,5.2
2023-05-08T02:49:33.001Z,7.7
2023-05-08T02:50:33.189Z,6.2
2023-05-08T02:51:32.995Z,5.4
2023-05-08T02:52:32.984Z,4.7
2023-05-08T02:53:33.031Z,6.4
2023-05-08T02:54:33.026Z,6.1
2023-05-08T02:55:32.989Z,4.7
2023-05-08T02:56:33.075Z,5.4
2023-05-08T02:57:33.277Z,5.9
2023-05-08T02:58:33.019Z,7.1
2023-05-08T02:59:32.984Z,7.2
2023-05-08T03:00:33.113Z,6.6
2023-05-08T03:01:33.139Z,5.7
2023-05-08T03:02:33.043Z,6.4
2023-05-08T03:03:33.090Z,6.7
2023-05-08T03:04:32.998Z,7.4
2023-05-08T03:05:33.008Z,6.7
2023-05-08T03:06:33.010Z,7.3
2023-05-08T03:07:32.939Z,5.2
2023-05-08T03:08:32.980Z,6.1
2023-05-08T03:09:32.970Z,5.6
2023-05-08T03:10:32.986Z,4.6
2023-05-08T03:11:32.989Z,5.3
2023-05-08T03:12:33.080Z,6.2
2023-05-08T03:13:32.953Z,5.2
2023-05-08T03:14:32.966Z,7.7
2023-05-08T03:15:33.005Z,6.5
2023-05-08T03:16:32.990Z,5.9
2023-05-08T03:17:33.026Z,4.7
2023-05-08T03:18:32.968Z,5.3
2023-05-08T03:19:33.032Z,5.3
2023-05-08T03:20:32.961Z,5.5
2023-05-08T03:21:33.018Z,6.6
2023-05-08T03:22:33.068Z,6.2
2023-05-08T03:23:33.018Z,6.5
2023-05-08T03:24:32.948Z,5.9
2023-05-08T03:25:32.973Z,8.6
2023-05-08T03:26:32.986Z,6.9
2023-05-08T03:27:32.988Z,5.4
2023-05-08T03:28:32.950Z,6.1
2023-05-08T03:29:33.058Z,6.5
2023-05-08T03:30:32.953Z,5.2
2023-05-08T03:31:33.018Z,7.3
2023-05-08T03:32:32.946Z,6.0
2023-05-08T03:33:32.975Z,5.0
2023-05-08T03:34:33.176Z,6.5
2023-05-08T03:35:32.913Z,6.6
2023-05-08T03:36:32.958Z,5.7
2023-05-08T03:37:32.985Z,9.0
2023-05-08T03:38:32.977Z,7.1
2023-05-08T03:39:32.902Z,5.6
2023-05-08T03:40:32.916Z,7.1
2023-05-08T03:41:32.902Z,6.1
2023-05-08T03:42:32.995Z,5.5
2023-05-08T03:43:32.935Z,5.3
2023-05-08T03:44:32.944Z,6.0
2023-05-08T03:45:33.043Z,6.5
2023-05-08T03:46:32.949Z,7.8
2023-05-08T03:47:32.997Z,6.2
2023-05-08T03:48:32.907Z,8.8
2023-05-08T03:49:32.995Z,7.7
2023-05-08T03:50:33.063Z,7.9
2023-05-08T03:51:32.914Z,6.8
2023-05-08T03:52:32.967Z,8.0
2023-05-08T03:53:32.927Z,6.5
2023-05-08T03:54:32.929Z,10.7
2023-05-08T03:55:32.883Z,7.5
2023-05-08T03:56:33.085Z,7.3
2023-05-08T03:57:32.922Z,8.4
2023-05-08T03:58:32.920Z,6.5
2023-05-08T03:59:32.880Z,8.7
2023-05-08T04:00:32.873Z,6.9
2023-05-08T04:01:32.876Z,6.9
2023-05-08T04:02:33.060Z,7.4
2023-05-08T04:03:33.006Z,7.5
2023-05-08T04:04:32.947Z,6.0
2023-05-08T04:05:32.874Z,6.6
2023-05-08T04:06:41.928Z,7.8
2023-05-08T04:07:33.078Z,5.8
2023-05-08T04:08:32.888Z,5.9
2023-05-08T04:09:32.862Z,6.1
2023-05-08T04:10:32.851Z,6.6
2023-05-08T04:11:32.817Z,9.0
2023-05-08T04:12:32.907Z,7.1
2023-05-08T04:13:32.910Z,5.5
2023-05-08T04:14:32.878Z,6.9
2023-05-08T04:15:32.830Z,5.2
2023-05-08T04:16:32.905Z,6.9
2023-05-08T04:17:32.923Z,7.3
2023-05-08T04:18:32.984Z,8.2
2023-05-08T04:19:32.899Z,5.0
2023-05-08T04:20:32.868Z,5.3
2023-05-08T04:21:32.836Z,6.6
2023-05-08T04:22:32.820Z,6.2
2023-05-08T04:23:32.850Z,9.6
2023-05-08T04:24:32.834Z,5.0
2023-05-08T04:25:32.843Z,7.6
2023-05-08T04:26:32.862Z,7.2
2023-05-08T04:27:32.853Z,5.8
2023-05-08T04:28:32.871Z,7.3
2023-05-08T04:29:32.817Z,5.7
2023-05-08T04:30:32.864Z,6.5
2023-05-08T04:31:32.846Z,7.2
2023-05-08T04:32:32.863Z,6.5
2023-05-08T04:33:32.786Z,5.5
2023-05-08T04:34:32.813Z,4.8
2023-05-08T04:35:32.815Z,6.6
2023-05-08T04:36:32.821Z,5.7
2023-05-08T04:37:32.848Z,6.4
2023-05-08T04:38:32.822Z,6.4
2023-05-08T04:39:32.794Z,6.9
2023-05-08T04:40:33.033Z,6.8
2023-05-08T04:41:32.902Z,5.6
2023-05-08T04:42:32.824Z,6.1
2023-05-08T04:43:32.791Z,5.8
2023-05-08T04:44:32.793Z,5.5
2023-05-08T04:45:32.814Z,7.1
2023-05-08T04:46:32.861Z,6.4
2023-05-08T04:47:32.804Z,7.9
2023-05-08T04:48:32.826Z,5.5
2023-05-08T04:49:32.794Z,6.2
2023-05-08T04:50:32.779Z,5.8
2023-05-08T04:51:32.990Z,6.0
2023-05-08T04:52:32.958Z,8.9
2023-05-08T04:53:32.778Z,7.7
2023-05-08T04:54:32.768Z,6.0
2023-05-08T04:55:32.770Z,5.7
2023-05-08T04:56:32.845Z,5.7
2023-05-08T04:57:32.746Z,7.8
2023-05-08T04:58:32.874Z,5.5
2023-05-08T04:59:32.873Z,6.8
2023-05-08T05:00:32.755Z,6.5
2023-05-08T05:01:32.822Z,5.8
2023-05-08T05:02:32.822Z,5.3
2023-05-08T05:03:32.771Z,10.5
2023-05-08T05:04:32.821Z,7.7
2023-05-08T05:05:32.915Z,6.7
2023-05-08T05:06:32.791Z,6.5
2023-05-08T05:07:32.985Z,8.6
2023-05-08T05:08:32.757Z,6.3
2023-05-08T05:09:32.792Z,4.8
2023-05-08T05:10:32.754Z,5.9
2023-05-08T05:11:32.741Z,6.6
2023-05-08T05:12:32.779Z,6.3
2023-05-08T05:13:32.885Z,4.7
2023-05-08T05:14:32.767Z,5.4
2023-05-08T05:15:32.751Z,6.2
2023-05-08T05:16:32.808Z,7.0
2023-05-08T05:17:32.783Z,4.5
2023-05-08T05:18:32.717Z,6.0
2023-05-08T05:19:32.767Z,6.3
2023-05-08T05:20:32.743Z,6.0
2023-05-08T05:21:32.789Z,6.7
2023-05-08T05:22:32.734Z,5.9
2023-05-08T05:23:32.724Z,7.5
2023-05-08T05:24:32.890Z,6.4
2023-05-08T05:25:32.752Z,8.0
2023-05-08T05:26:33.453Z,9.1
2023-05-08T05:27:32.808Z,6.9
2023-05-08T05:28:32.726Z,6.5
2023-05-08T05:29:32.747Z,7.7
2023-05-08T05:30:32.713Z,6.6
2023-05-08T05:31:32.819Z,7.0
2023-05-08T05:32:32.813Z,10.0
2023-05-08T05:33:32.680Z,11.7
2023-05-08T05:34:32.751Z,8.9
2023-05-08T05:35:32.880Z,16.7
2023-05-08T05:36:32.722Z,8.4
2023-05-08T05:37:32.759Z,21.5
2023-05-08T05:38:32.677Z,25.0
2023-05-08T05:39:32.743Z,9.3
2023-05-08T05:40:32.701Z,8.5
2023-05-08T05:41:32.728Z,11.1
2023-05-08T05:42:32.696Z,13.7
2023-05-08T05:43:32.753Z,19.9
2023-05-08T05:44:32.725Z,13.1
2023-05-08T05:45:33.692Z,15.8
2023-05-08T05:46:32.945Z,30.6
2023-05-08T05:47:32.823Z,23.2
2023-05-08T05:48:32.689Z,21.5
2023-05-08T05:49:32.806Z,26.5
2023-05-08T05:50:32.743Z,7.3
2023-05-08T05:51:32.640Z,18.2
2023-05-08T05:52:32.671Z,27.4
2023-05-08T05:53:32.668Z,23.5
2023-05-08T05:54:32.721Z,12.5
2023-05-08T05:55:32.752Z,8.6
2023-05-08T05:56:32.646Z,8.0
2023-05-08T05:57:33.016Z,12.5
2023-05-08T05:58:32.697Z,17.8
2023-05-08T05:59:32.735Z,19.3
2023-05-08T06:00:32.675Z,18.4
2023-05-08T06:01:32.696Z,18.8
2023-05-08T06:02:32.763Z,17.9
2023-05-08T06:03:32.782Z,11.6
2023-05-08T06:04:32.702Z,13.1
2023-05-08T06:05:32.701Z,17.3
2023-05-08T06:06:32.659Z,16.7
2023-05-08T06:07:32.658Z,17.3
2023-05-08T06:08:32.766Z,10.9
2023-05-08T06:09:32.657Z,11.0
2023-05-08T06:10:32.651Z,12.3
2023-05-08T06:11:32.680Z,15.2
2023-05-08T06:12:32.679Z,12.8
2023-05-08T06:13:32.840Z,11.7
2023-05-08T06:14:32.682Z,10.8
2023-05-08T06:15:32.641Z,6.6
2023-05-08T06:16:32.668Z,10.2
2023-05-08T06:17:32.664Z,10.8
2023-05-08T06:18:32.682Z,9.7
2023-05-08T06:19:32.767Z,7.3
2023-05-08T06:20:32.644Z,15.3
2023-05-08T06:21:32.614Z,13.3
2023-05-08T06:22:32.653Z,8.8
2023-05-08T06:23:32.637Z,17.7
2023-05-08T06:24:32.616Z,15.7
2023-05-08T06:25:32.629Z,9.9
2023-05-08T06:26:32.633Z,16.6
2023-05-08T06:27:32.588Z,24.2
2023-05-08T06:28:32.590Z,10.7
2023-05-08T06:29:32.603Z,11.0
2023-05-08T06:30:32.815Z,13.9
2023-05-08T06:31:32.652Z,10.0
2023-05-08T06:32:32.626Z,10.5
2023-05-08T06:33:32.618Z,11.6
2023-05-08T06:34:32.630Z,12.7
2023-05-08T06:35:32.615Z,6.2
2023-05-08T06:36:32.668Z,8.6
2023-05-08T06:37:32.619Z,7.7
2023-05-08T06:38:32.610Z,6.1
2023-05-08T06:39:32.640Z,10.1
2023-05-08T06:40:32.614Z,11.8
2023-05-08T06:41:32.698Z,13.2
2023-05-08T06:42:32.623Z,11.6
2023-05-08T06:43:32.594Z,13.6
2023-05-08T06:44:32.602Z,16.4
2023-05-08T06:45:32.612Z,26.9
2023-05-08T06:46:32.671Z,19.1
2023-05-08T06:47:32.724Z,20.6
2023-05-08T06:48:32.561Z,14.9
2023-05-08T06:49:32.653Z,11.6
2023-05-08T06:50:32.617Z,8.9
2023-05-08T06:51:32.608Z,9.4
2023-05-08T06:52:32.983Z,19.2
2023-05-08T06:53:32.733Z,10.9
2023-05-08T06:54:32.600Z,9.4
2023-05-08T06:55:33.173Z,24.1
2023-05-08T06:56:32.612Z,21.0
2023-05-08T06:57:32.959Z,11.4
2023-05-08T06:58:32.857Z,21.3
2023-05-08T06:59:32.572Z,19.5
2023-05-08T07:00:32.595Z,16.5
2023-05-08T07:01:32.710Z,14.1
2023-05-08T07:02:32.806Z,10.0
2023-05-08T07:03:32.584Z,7.3
2023-05-08T07:04:32.652Z,8.4
2023-05-08T07:05:38.793Z,12.1
2023-05-08T07:06:32.535Z,7.6
2023-05-08T07:07:32.572Z,8.6
2023-05-08T07:08:32.605Z,9.7
2023-05-08T07:09:32.530Z,19.2
2023-05-08T07:10:32.614Z,16.2
2023-05-08T07:11:33.204Z,25.0
2023-05-08T07:12:32.530Z,29.2
2023-05-08T07:13:32.654Z,12.3
2023-05-08T07:14:32.728Z,7.1
2023-05-08T07:15:32.651Z,12.9
2023-05-08T07:16:32.642Z,7.7
2023-05-08T07:17:32.603Z,6.5
2023-05-08T07:18:32.543Z,7.2
2023-05-08T07:19:32.552Z,8.3
2023-05-08T07:20:32.568Z,14.7
2023-05-08T07:21:32.555Z,23.4
2023-05-08T07:22:32.734Z,17.8
2023-05-08T07:23:32.500Z,6.1
2023-05-08T07:24:32.488Z,7.1
2023-05-08T07:25:32.842Z,5.2
2023-05-08T07:26:32.746Z,7.5
2023-05-08T07:27:32.582Z,7.2
2023-05-08T07:28:32.517Z,5.6
2023-05-08T07:29:32.503Z,7.3
2023-05-08T07:30:32.496Z,8.0
2023-05-08T07:31:32.593Z,7.5
2023-05-08T07:32:32.566Z,11.2
2023-05-08T07:33:32.502Z,11.4
2023-05-08T07:34:32.494Z,9.7
2023-05-08T07:35:32.540Z,12.8
2023-05-08T07:36:32.515Z,13.7
2023-05-08T07:37:32.591Z,15.3
2023-05-08T07:38:32.525Z,5.5
2023-05-08T07:39:32.496Z,6.6
2023-05-08T07:40:32.541Z,7.4
2023-05-08T07:41:32.623Z,6.1
2023-05-08T07:42:32.509Z,4.9
2023-05-08T07:43:32.480Z,4.9
2023-05-08T07:44:37.495Z,6.7
2023-05-08T07:45:32.574Z,5.0
2023-05-08T07:46:32.583Z,5.9
2023-05-08T07:47:32.478Z,5.2
2023-05-08T07:48:32.467Z,5.4
2023-05-08T07:49:32.506Z,4.4
2023-05-08T07:50:32.620Z,5.6
2023-05-08T07:51:32.497Z,6.6
2023-05-08T07:52:32.440Z,5.7
2023-05-08T07:53:32.479Z,5.9
2023-05-08T07:54:32.584Z,4.3
2023-05-08T07:55:32.560Z,5.9
2023-05-08T07:56:32.450Z,6.5
2023-05-08T07:57:32.425Z,5.6
2023-05-08T07:58:32.554Z,5.2
2023-05-08T07:59:32.528Z,9.8
2023-05-08T08:00:32.438Z,8.5
2023-05-08T08:01:32.454Z,15.8
2023-05-08T08:02:32.570Z,9.0
2023-05-08T08:03:32.559Z,6.1
2023-05-08T08:04:32.617Z,4.9
2023-05-08T08:05:32.510Z,5.6
2023-05-08T08:06:32.439Z,4.8
2023-05-08T08:07:32.579Z,6.9
2023-05-08T08:08:32.407Z,5.1
2023-05-08T08:09:32.440Z,5.5
2023-05-08T08:10:32.564Z,4.8
2023-05-08T08:11:32.450Z,6.9
2023-05-08T08:12:32.451Z,14.2
2023-05-08T08:13:32.513Z,12.6
2023-05-08T08:14:32.446Z,9.5
2023-05-08T08:15:32.506Z,7.0
2023-05-08T08:16:32.460Z,12.1
2023-05-08T08:17:32.522Z,14.9
2023-05-08T08:18:32.432Z,9.7
2023-05-08T08:19:32.499Z,12.6
2023-05-08T08:20:32.803Z,7.3
2023-05-08T08:21:32.392Z,9.1
2023-05-08T08:22:32.439Z,6.5
2023-05-08T08:23:32.463Z,8.1
2023-05-08T08:24:32.500Z,8.4
2023-05-08T08:25:32.456Z,9.5
2023-05-08T08:26:32.399Z,10.0
2023-05-08T08:27:32.451Z,11.3
2023-05-08T08:28:32.399Z,6.3
2023-05-08T08:29:32.417Z,7.6
2023-05-08T08:30:33.596Z,6.9
2023-05-08T08:31:32.662Z,6.3
2023-05-08T08:32:32.466Z,4.9
2023-05-08T08:33:32.422Z,6.7
2023-05-08T08:34:32.416Z,6.4
2023-05-08T08:35:32.534Z,4.5
2023-05-08T08:36:32.480Z,7.2
2023-05-08T08:37:32.402Z,6.2
2023-05-08T08:38:32.454Z,6.4
2023-05-08T08:39:32.421Z,5.8
2023-05-08T08:40:32.560Z,5.0
2023-05-08T08:41:32.397Z,5.0
2023-05-08T08:42:32.360Z,6.8
2023-05-08T08:43:32.364Z,5.8
2023-05-08T08:44:32.407Z,4.4
2023-05-08T08:45:32.472Z,5.4
2023-05-08T08:46:32.419Z,5.4
2023-05-08T08:47:32.467Z,6.7
2023-05-08T08:48:32.348Z,4.7
2023-05-08T08:49:32.399Z,6.9
2023-05-08T08:50:32.476Z,11.6
2023-05-08T08:51:32.378Z,10.4
2023-05-08T08:52:32.501Z,6.3
2023-05-08T08:53:32.401Z,8.3
2023-05-08T08:54:32.358Z,5.7
2023-05-08T08:55:32.438Z,4.9
2023-05-08T08:56:32.388Z,5.2
2023-05-08T08:57:32.344Z,4.2
2023-05-08T08:58:32.466Z,6.6
2023-05-08T08:59:32.358Z,5.9
2023-05-08T09:00:32.428Z,7.9
2023-05-08T09:01:32.367Z,8.9
2023-05-08T09:02:32.495Z,15.2
2023-05-08T09:03:32.627Z,18.3
2023-05-08T09:04:32.414Z,14.4
2023-05-08T09:05:32.435Z,9.4
2023-05-08T09:06:32.352Z,5.8
2023-05-08T09:07:32.442Z,9.4
2023-05-08T09:08:32.432Z,9.5
2023-05-08T09:09:32.369Z,11.1
2023-05-08T09:10:32.397Z,12.9
2023-05-08T09:11:32.312Z,13.1
2023-05-08T09:12:32.375Z,8.2
2023-05-08T09:13:32.784Z,12.4
2023-05-08T09:14:32.371Z,6.6
2023-05-08T09:15:32.402Z,8.8
2023-05-08T09:16:32.539Z,11.7
2023-05-08T09:17:32.383Z,12.5
2023-05-08T09:18:32.461Z,8.0
2023-05-08T09:19:32.668Z,6.7
2023-05-08T09:20:32.416Z,25.8
2023-05-08T09:21:32.339Z,31.1
2023-05-08T09:22:32.320Z,11.6
2023-05-08T09:23:32.296Z,11.3
2023-05-08T09:24:32.444Z,5.9
2023-05-08T09:25:32.412Z,7.4
2023-05-08T09:26:32.363Z,5.8
2023-05-08T09:27:32.310Z,5.5
2023-05-08T09:28:32.310Z,4.3
2023-05-08T09:29:32.325Z,3.9
2023-05-08T09:30:32.341Z,5.5
2023-05-08T09:31:32.877Z,29.6
2023-05-08T09:32:32.368Z,10.7
2023-05-08T09:33:32.400Z,10.1
2023-05-08T09:34:32.323Z,10.1
2023-05-08T09:35:32.304Z,6.9
2023-05-08T09:36:32.307Z,10.0
2023-05-08T09:37:32.355Z,12.1
2023-05-08T09:38:32.322Z,18.6
2023-05-08T09:39:32.307Z,12.6
2023-05-08T09:40:32.330Z,6.9
2023-05-08T09:41:32.329Z,5.4
2023-05-08T09:42:32.368Z,5.6
2023-05-08T09:43:32.357Z,8.5
2023-05-08T09:44:32.328Z,23.1
2023-05-08T09:45:32.481Z,6.8
2023-05-08T09:46:32.471Z,5.1
2023-05-08T09:47:32.408Z,4.2
2023-05-08T09:48:32.273Z,4.7
2023-05-08T09:49:32.409Z,12.7
2023-05-08T09:50:32.264Z,5.0
2023-05-08T09:51:32.300Z,3.6
2023-05-08T09:52:32.340Z,7.2
2023-05-08T09:53:32.261Z,4.3
2023-05-08T09:54:32.399Z,6.4
2023-05-08T09:55:32.305Z,4.5
2023-05-08T09:56:32.250Z,5.7
2023-05-08T09:57:35.132Z,9.0
2023-05-08T09:58:32.292Z,8.0
2023-05-08T09:59:34.264Z,5.1
2023-05-08T10:00:33.358Z,6.1
2023-05-08T10:01:32.308Z,6.6
2023-05-08T10:02:32.296Z,6.0
2023-05-08T10:03:32.233Z,5.3
2023-05-08T10:04:32.269Z,5.5
2023-05-08T10:05:32.849Z,12.4
2023-05-08T10:06:32.246Z,13.2
2023-05-08T10:07:32.462Z,4.2
2023-05-08T10:08:32.373Z,3.8
2023-05-08T10:09:43.005Z,4.6
2023-05-08T10:10:32.343Z,5.0
2023-05-08T10:11:32.234Z,10.7
2023-05-08T10:12:32.282Z,8.6
2023-05-08T10:13:32.283Z,4.5
2023-05-08T10:14:32.221Z,5.7
2023-05-08T10:15:32.285Z,6.7
2023-05-08T10:16:32.462Z,7.6
2023-05-08T10:17:32.544Z,4.9
2023-05-08T10:18:32.403Z,5.9
2023-05-08T10:19:32.667Z,9.7
2023-05-08T10:20:32.253Z,22.8
2023-05-08T10:21:32.237Z,17.9
2023-05-08T10:22:32.283Z,12.4
2023-05-08T10:23:32.244Z,16.8
2023-05-08T10:24:32.211Z,4.7
2023-05-08T10:25:32.242Z,30.4
2023-05-08T10:26:32.301Z,36.1
2023-05-08T10:27:32.289Z,14.0
2023-05-08T10:28:32.274Z,9.6
2023-05-08T10:29:32.307Z,17.5
2023-05-08T10:30:32.358Z,22.0
2023-05-08T10:31:32.282Z,10.0
2023-05-08T10:32:32.279Z,10.8
2023-05-08T10:33:32.256Z,16.3
2023-05-08T10:34:32.237Z,10.9
2023-05-08T10:35:32.197Z,10.1
2023-05-08T10:36:32.198Z,15.7
2023-05-08T10:37:32.184Z,11.4
2023-05-08T10:38:32.253Z,6.1
2023-05-08T10:39:32.231Z,22.1
2023-05-08T10:40:32.267Z,21.8
2023-05-08T10:41:32.382Z,32.2
2023-05-08T10:42:32.279Z,14.9
2023-05-08T10:43:32.251Z,11.6
2023-05-08T10:44:32.239Z,8.6
2023-05-08T10:45:32.218Z,11.8
2023-05-08T10:46:32.221Z,13.5
2023-05-08T10:47:32.253Z,8.4
2023-05-08T10:48:32.194Z,5.1
2023-05-08T10:49:32.203Z,8.7
2023-05-08T10:50:32.156Z,5.9
2023-05-08T10:51:32.160Z,6.6
2023-05-08T10:52:32.366Z,7.1
2023-05-08T10:53:32.243Z,6.4
2023-05-08T10:54:43.494Z,4.9
2023-05-08T10:55:32.213Z,4.7
2023-05-08T10:56:32.165Z,11.3
2023-05-08T10:57:32.229Z,7.2
2023-05-08T10:58:32.232Z,6.9
2023-05-08T10:59:32.171Z,5.8
2023-05-08T11:00:32.156Z,5.5
2023-05-08T11:01:32.324Z,10.3
2023-05-08T11:02:32.324Z,5.3
2023-05-08T11:03:33.310Z,4.7
2023-05-08T11:04:32.321Z,5.9
2023-05-08T11:05:32.197Z,4.8
2023-05-08T11:06:32.175Z,8.5
2023-05-08T11:07:32.277Z,4.7
2023-05-08T11:08:32.196Z,6.5
2023-05-08T11:09:32.185Z,5.3
2023-05-08T11:10:32.165Z,4.2
2023-05-08T11:11:32.190Z,7.3
2023-05-08T11:12:32.176Z,4.6
2023-05-08T11:13:32.537Z,5.7
2023-05-08T11:14:32.301Z,5.9
2023-05-08T11:15:32.123Z,10.4
2023-05-08T11:16:32.210Z,4.4
2023-05-08T11:17:32.133Z,4.8
2023-05-08T11:18:45.714Z,6.0
2023-05-08T11:19:32.149Z,7.8
2023-05-08T11:20:32.324Z,6.2
2023-05-08T11:21:32.127Z,12.8
2023-05-08T11:22:32.137Z,6.0
2023-05-08T11:23:32.135Z,6.6
2023-05-08T11:24:32.133Z,7.8
2023-05-08T11:25:32.282Z,5.6
2023-05-08T11:26:35.175Z,6.1
2023-05-08T11:27:32.115Z,4.0
2023-05-08T11:28:33.304Z,5.8
2023-05-08T11:29:32.126Z,5.4
2023-05-08T11:30:32.133Z,5.3
2023-05-08T11:31:32.174Z,4.3
2023-05-08T11:32:32.159Z,8.9
2023-05-08T11:33:32.143Z,10.6
2023-05-08T11:34:32.258Z,9.3
2023-05-08T11:35:32.084Z,11.4
2023-05-08T11:36:32.116Z,11.2
2023-05-08T11:37:32.129Z,8.7
2023-05-08T11:38:32.093Z,16.0
2023-05-08T11:39:32.174Z,19.5
2023-05-08T11:40:32.129Z,9.7
2023-05-08T11:41:32.079Z,9.3
2023-05-08T11:42:32.168Z,19.8
2023-05-08T11:43:32.117Z,17.2
2023-05-08T11:44:32.112Z,19.1
2023-05-08T11:45:32.128Z,16.8
2023-05-08T11:46:32.161Z,29.8
2023-05-08T11:47:32.328Z,60.0
2023-05-08T11:48:32.089Z,15.6
2023-05-08T11:49:32.966Z,18.2
2023-05-08T11:50:32.129Z,102.7
2023-05-08T11:51:32.142Z,87.9
2023-05-08T11:52:32.072Z,35.7
2023-05-08T11:53:32.110Z,25.7
2023-05-08T11:54:32.145Z,18.7
2023-05-08T11:55:32.117Z,21.9
2023-05-08T11:56:32.107Z,8.9
2023-05-08T11:57:32.107Z,28.3
2023-05-08T11:58:32.046Z,62.0
2023-05-08T11:59:32.122Z,65.3
2023-05-08T12:00:32.364Z,21.3
2023-05-08T12:01:32.149Z,42.7
2023-05-08T12:02:33.978Z,77.1
2023-05-08T12:03:32.180Z,76.0
2023-05-08T12:04:32.134Z,56.8
2023-05-08T12:05:32.148Z,15.2
2023-05-08T12:06:32.101Z,25.0
2023-05-08T12:07:32.093Z,11.7
2023-05-08T12:08:32.091Z,55.6
2023-05-08T12:09:32.084Z,51.1
2023-05-08T12:10:32.038Z,77.0
2023-05-08T12:11:32.039Z,99.3
2023-05-08T12:12:32.033Z,17.8
2023-05-08T12:13:32.119Z,6.3
2023-05-08T12:14:32.035Z,7.8
2023-05-08T12:15:32.088Z,31.9
2023-05-08T12:16:32.107Z,14.3
2023-05-08T12:17:32.065Z,16.6
2023-05-08T12:18:32.038Z,19.9
2023-05-08T12:19:32.050Z,16.8
2023-05-08T12:20:33.817Z,14.8
2023-05-08T12:21:32.033Z,13.9
2023-05-08T12:22:32.233Z,17.0
2023-05-08T12:23:32.033Z,7.9
2023-05-08T12:24:32.196Z,4.5
2023-05-08T12:25:32.058Z,6.2
2023-05-08T12:26:32.025Z,16.3
2023-05-08T12:27:32.027Z,11.3
2023-05-08T12:28:32.056Z,5.0
2023-05-08T12:29:32.056Z,8.7
2023-05-08T12:30:32.125Z,6.0
2023-05-08T12:31:32.139Z,5.1
2023-05-08T12:32:32.037Z,6.6
2023-05-08T12:33:32.188Z,3.6
2023-05-08T12:34:32.064Z,4.0
2023-05-08T12:35:32.023Z,3.1
2023-05-08T12:36:32.051Z,5.0
2023-05-08T12:37:32.018Z,4.1
2023-05-08T12:38:32.032Z,3.7
2023-05-08T12:39:32.042Z,4.6
2023-05-08T12:40:31.946Z,4.2
2023-05-08T12:41:31.994Z,2.6
2023-05-08T12:42:32.040Z,3.0
2023-05-08T12:43:32.052Z,22.4
2023-05-08T12:44:32.226Z,39.7
2023-05-08T12:45:31.992Z,11.4
2023-05-08T12:46:32.099Z,9.9
2023-05-08T12:47:32.008Z,9.4
2023-05-08T12:48:32.407Z,5.2
2023-05-08T12:49:32.093Z,3.4
2023-05-08T12:50:32.123Z,4.2
2023-05-08T12:51:32.039Z,7.1
2023-05-08T12:52:32.001Z,4.1
2023-05-08T12:53:32.179Z,9.6
2023-05-08T12:54:32.002Z,6.5
2023-05-08T12:55:32.142Z,7.0
2023-05-08T12:56:31.984Z,35.0
2023-05-08T12:57:32.096Z,8.9
2023-05-08T12:58:32.035Z,5.7
2023-05-08T12:59:31.956Z,2.9
2023-05-08T13:00:32.138Z,4.0
2023-05-08T13:01:32.022Z,2.6
2023-05-08T13:02:32.114Z,17.5
2023-05-08T13:03:32.005Z,4.3
2023-05-08T13:04:32.107Z,3.5
2023-05-08T13:05:32.030Z,4.8
2023-05-08T13:06:32.126Z,5.8
2023-05-08T13:07:31.973Z,3.6
2023-05-08T13:08:32.036Z,3.7
2023-05-08T13:09:31.961Z,7.9
2023-05-08T13:10:32.144Z,4.9
2023-05-08T13:11:31.958Z,5.0
2023-05-08T13:12:31.995Z,2.8
2023-05-08T13:13:31.970Z,3.4
2023-05-08T13:14:31.988Z,3.8
2023-05-08T13:15:32.083Z,3.9
2023-05-08T13:16:32.063Z,4.3
2023-05-08T13:17:32.136Z,4.7
2023-05-08T13:18:31.958Z,3.4
2023-05-08T13:19:31.982Z,3.4
2023-05-08T13:20:31.960Z,4.3
2023-05-08T13:21:32.436Z,4.7
2023-05-08T13:22:32.070Z,6.2
2023-05-08T13:23:32.176Z,8.9
2023-05-08T13:24:32.004Z,9.8
2023-05-08T13:25:31.965Z,15.6
2023-05-08T13:26:31.919Z,9.0
2023-05-08T13:27:32.001Z,3.7
2023-05-08T13:28:31.909Z,3.0
2023-05-08T13:29:32.215Z,3.5
2023-05-08T13:30:31.993Z,4.0
2023-05-08T13:31:35.733Z,2.8
2023-05-08T13:32:32.001Z,4.1
2023-05-08T13:33:31.947Z,3.0
2023-05-08T13:34:31.961Z,2.5
2023-05-08T13:35:32.013Z,2.8
2023-05-08T13:36:31.930Z,2.5
2023-05-08T13:37:32.028Z,2.6
2023-05-08T13:38:32.007Z,4.9
2023-05-08T13:39:31.921Z,3.9